Airfield :
LOGIN :

Register | Disclaimer

   EN    FR    IT 

 










Legend :    VFR   Marginal VFR   IFR   Intensive IFR   Very Intensive IFR
Visi :
Ceiling :
>= 8 km
>= 3000ft
5 to 8 km
1000 to 3000 ft
1500m to 5 km
500 to 1000 ft
800 to 1500m
200 to 500 ft
< 800m
< 200 ft
Symbols :   Thunderstorms  Fog  Heavy snow  Heavy precipitations  Wind > 20 kt
SIGMETs :     Misc.  Thunderstorms  Icing  Turbulence  Mountain Waves  Volcanic Ashes






- Airport Elevation : 527 ft
- IATA code : DBV


LDDU - Dubrovnik

CURRENT METAR :
  • 181900Z 03012KT 300V100 CAVOK 02/M13 Q1022 NOSIG

EXPIRED METARs :
  • 181830Z 03013KT 350V080 CAVOK 02/M13 Q1022 NOSIG
  • 181800Z 04012KT 330V070 CAVOK 02/M13 Q1022 NOSIG
  • 181730Z 04009KT 360V100 CAVOK 03/M12 Q1022 NOSIG
  • 181700Z 03010KT 320V090 CAVOK 03/M13 Q1021 NOSIG
  • 181630Z 02010KT 320V080 CAVOK 03/M12 Q1021 NOSIG

TAF TAF LDDU
Valid from the 18 at 18:00 until the 19 at 18:00 UTC


181725Z 1818/1918 02012KT CAVOK TX08/1912Z TN00/1905Z
PROB40
TEMPO 1818/1906 VRB18G28KT
BECMG 1908/1910 30008KT



MET'MAP, your aeronautical weather chart ! - Copyright ORBIFLY December 2007 - Disclaimer

ORBIFLY MET'MAP TEAM :

Programming & Development : Alexandra Zaïnal
Concept & original design : Baudouin d'Aumeries
Assistance for programming : Marc-Olivier Méhu
Technical & hardware support : Manuel Goepfert

Contact : metmap@orbifly.com




SOURCES & CREDITS :

   NOAA